createdAt,value
2023-05-19T00:03:21.826Z,7.88
2023-05-19T00:08:24.673Z,7.53
2023-05-19T00:13:27.167Z,5.28
2023-05-19T00:18:29.837Z,4.20
2023-05-19T00:23:31.491Z,5.22
2023-05-19T00:28:33.122Z,7.07
2023-05-19T00:33:34.873Z,5.72
2023-05-19T00:38:37.104Z,8.82
2023-05-19T00:43:38.694Z,6.88
2023-05-19T00:48:40.368Z,7.22
2023-05-19T00:53:43.925Z,8.45
2023-05-19T00:58:46.059Z,8.23
2023-05-19T01:03:48.481Z,4.85
2023-05-19T01:08:51.649Z,8.32
2023-05-19T01:13:53.268Z,6.85
2023-05-19T01:19:14.174Z,4.95
2023-05-19T01:24:37.333Z,2.97
2023-05-19T01:30:00.321Z,5.72
2023-05-19T01:35:04.675Z,6.28
2023-05-19T01:40:08.342Z,4.63
2023-05-19T01:45:10.620Z,7.10
2023-05-19T01:50:12.555Z,4.35
2023-05-19T01:55:14.227Z,6.13
2023-05-19T02:00:31.036Z,5.65
2023-05-19T02:05:41.775Z,3.53
2023-05-19T02:10:49.360Z,3.70
2023-05-19T02:15:54.603Z,4.00
2023-05-19T02:20:56.209Z,4.38
2023-05-19T02:25:59.221Z,4.88
2023-05-19T02:31:01.477Z,5.18
2023-05-19T02:36:04.399Z,8.43
2023-05-19T02:41:06.025Z,6.13
2023-05-19T02:46:07.689Z,6.63
2023-05-19T02:51:10.251Z,4.50
2023-05-19T02:56:11.984Z,7.22
2023-05-19T03:01:13.589Z,4.68
2023-05-19T03:06:15.600Z,6.70
2023-05-19T03:11:17.645Z,3.47
2023-05-19T03:16:19.220Z,4.13
2023-05-19T03:21:20.890Z,5.57
2023-05-19T03:26:23.144Z,5.32
2023-05-19T03:31:26.716Z,7.15
2023-05-19T03:36:32.231Z,9.68
2023-05-19T03:41:34.947Z,4.63
2023-05-19T03:46:37.585Z,5.47
2023-05-19T03:51:54.570Z,5.13
2023-05-19T03:57:05.053Z,2.85
2023-05-19T04:02:08.343Z,5.40
2023-05-19T04:07:10.101Z,5.80
2023-05-19T04:12:12.761Z,4.22
2023-05-19T04:17:14.456Z,4.40
2023-05-19T04:22:16.133Z,7.65
2023-05-19T04:27:18.214Z,2.88
2023-05-19T04:32:19.755Z,6.35
2023-05-19T04:37:21.589Z,6.05
2023-05-19T04:42:26.128Z,4.50
2023-05-19T04:47:30.038Z,6.18
2023-05-19T04:52:32.175Z,4.18
2023-05-19T04:57:34.116Z,3.00
2023-05-19T05:02:37.061Z,5.03
2023-05-19T05:07:39.250Z,4.78
2023-05-19T05:12:41.365Z,5.13
2023-05-19T05:17:43.691Z,3.70
2023-05-19T05:22:45.681Z,5.85
2023-05-19T05:27:48.367Z,8.23
2023-05-19T05:32:50.017Z,2.72
2023-05-19T05:38:04.197Z,8.20
2023-05-19T05:43:06.123Z,3.45
2023-05-19T05:48:12.496Z,7.63
2023-05-19T05:53:19.088Z,6.68
2023-05-19T05:58:22.756Z,6.43
2023-05-19T06:03:26.107Z,3.28
2023-05-19T06:08:29.245Z,4.72
2023-05-19T06:13:30.955Z,3.70
2023-05-19T06:18:32.719Z,5.15
2023-05-19T06:23:36.105Z,6.25
2023-05-19T06:28:39.564Z,5.10
2023-05-19T06:33:41.118Z,5.45
2023-05-19T06:38:42.717Z,2.42
2023-05-19T06:43:44.812Z,4.15
2023-05-19T06:48:49.120Z,4.10
2023-05-19T06:53:53.280Z,7.75
2023-05-19T06:58:54.900Z,6.18
2023-05-19T07:04:00.891Z,3.42
2023-05-19T07:09:05.199Z,3.15
2023-05-19T07:14:07.239Z,5.82
2023-05-19T07:19:08.987Z,7.40
2023-05-19T07:24:10.905Z,5.43
2023-05-19T07:29:12.582Z,4.65
2023-05-19T07:34:14.144Z,4.30
2023-05-19T07:39:15.784Z,3.30
2023-05-19T07:44:17.348Z,5.75
2023-05-19T07:49:19.093Z,2.78
2023-05-19T07:54:21.220Z,3.33
2023-05-19T07:59:22.928Z,3.35
2023-05-19T08:04:24.540Z,4.70
2023-05-19T08:09:26.192Z,3.03
2023-05-19T08:14:27.994Z,4.22
2023-05-19T08:19:29.636Z,4.18
2023-05-19T08:24:32.749Z,4.05
2023-05-19T08:29:34.336Z,2.92
2023-05-19T08:34:36.046Z,5.35
2023-05-19T08:39:37.743Z,8.07
2023-05-19T08:44:40.130Z,2.53
2023-05-19T08:49:51.909Z,4.22
2023-05-19T08:54:57.103Z,3.10
2023-05-19T08:59:59.366Z,2.20
2023-05-19T09:05:01.428Z,3.30
2023-05-19T09:10:04.328Z,2.40
2023-05-19T09:15:07.771Z,1.73
2023-05-19T09:20:11.531Z,1.60
2023-05-19T09:25:23.645Z,1.42
2023-05-19T09:30:26.008Z,1.70
2023-05-19T09:35:27.589Z,2.15
2023-05-19T09:40:29.175Z,2.20
2023-05-19T09:45:30.776Z,2.05
2023-05-19T09:50:32.829Z,1.98
2023-05-19T09:55:34.643Z,2.45
2023-05-19T10:00:38.295Z,1.75
2023-05-19T10:05:41.627Z,3.05
2023-05-19T10:10:46.233Z,1.58
2023-05-19T10:15:58.241Z,3.33
2023-05-19T10:21:02.291Z,2.42
2023-05-19T10:26:06.539Z,1.90
2023-05-19T10:31:13.403Z,2.70
2023-05-19T10:36:29.527Z,1.20
2023-05-19T10:41:47.111Z,1.70
2023-05-19T10:46:48.895Z,1.63
2023-05-19T10:51:54.896Z,1.65
2023-05-19T10:56:56.754Z,1.80
2023-05-19T11:02:06.436Z,3.03
2023-05-19T11:07:10.530Z,3.65
2023-05-19T11:12:12.145Z,1.50
2023-05-19T11:17:15.547Z,1.73
2023-05-19T11:22:17.044Z,1.25
2023-05-19T11:27:32.966Z,2.17
2023-05-19T11:32:35.854Z,1.20
2023-05-19T11:37:37.536Z,0.98
2023-05-19T11:42:39.192Z,1.00
2023-05-19T11:47:57.277Z,0.90
2023-05-19T11:53:02.613Z,1.02
2023-05-19T11:58:05.831Z,1.30
2023-05-19T12:03:09.129Z,1.10
2023-05-19T12:08:12.349Z,1.30
2023-05-19T12:13:14.820Z,1.17
2023-05-19T12:18:16.359Z,2.47
2023-05-19T12:23:18.310Z,1.20
2023-05-19T12:28:20.067Z,1.45
2023-05-19T12:33:22.830Z,0.90
2023-05-19T12:38:24.396Z,1.08
2023-05-19T12:43:25.927Z,3.33
2023-05-19T12:48:28.545Z,1.13
2023-05-19T12:53:30.159Z,1.90
2023-05-19T12:58:34.291Z,3.40
2023-05-19T13:03:41.224Z,3.28
2023-05-19T13:08:42.835Z,1.35
2023-05-19T13:13:44.413Z,0.95
2023-05-19T13:18:46.063Z,1.45
2023-05-19T13:23:47.675Z,4.03
2023-05-19T13:28:49.339Z,1.67
2023-05-19T13:33:50.883Z,1.55
2023-05-19T13:38:52.630Z,0.77
2023-05-19T13:43:54.253Z,0.90
2023-05-19T13:48:55.888Z,0.98
2023-05-19T13:53:57.538Z,1.88
2023-05-19T13:58:59.161Z,1.20
2023-05-19T14:04:01.275Z,1.45
2023-05-19T14:09:03.243Z,2.08
2023-05-19T14:14:04.898Z,2.20
2023-05-19T14:19:06.730Z,1.23
2023-05-19T14:24:08.450Z,1.23
2023-05-19T14:29:10.021Z,1.50
2023-05-19T14:34:11.630Z,1.50
2023-05-19T14:39:13.321Z,1.15
2023-05-19T14:44:14.919Z,0.98
2023-05-19T14:49:16.488Z,1.48
2023-05-19T14:54:18.052Z,2.38
2023-05-19T14:59:19.609Z,1.20
2023-05-19T15:04:21.456Z,0.90
2023-05-19T15:09:23.192Z,1.00
2023-05-19T15:14:24.819Z,1.17
2023-05-19T15:19:26.948Z,1.60
2023-05-19T15:24:28.687Z,0.90
2023-05-19T15:29:30.230Z,1.20
2023-05-19T15:34:31.791Z,0.98
2023-05-19T15:39:33.706Z,1.73
2023-05-19T15:44:36.611Z,2.70
2023-05-19T15:49:38.226Z,3.13
2023-05-19T15:54:39.807Z,1.70
2023-05-19T15:59:41.422Z,1.38
2023-05-19T16:04:43.018Z,1.85
2023-05-19T16:09:44.702Z,1.10
2023-05-19T16:14:46.211Z,0.95
2023-05-19T16:19:47.784Z,1.77
2023-05-19T16:24:49.326Z,1.50
2023-05-19T16:29:50.990Z,1.38
2023-05-19T16:34:52.566Z,1.50
2023-05-19T16:39:54.171Z,1.98
2023-05-19T16:44:55.888Z,1.50
2023-05-19T16:49:57.452Z,1.40
2023-05-19T16:54:58.973Z,1.30
2023-05-19T17:00:00.470Z,1.40
2023-05-19T17:05:02.030Z,1.45
2023-05-19T17:10:03.886Z,1.30
2023-05-19T17:15:06.455Z,1.45
2023-05-19T17:20:08.543Z,1.17
2023-05-19T17:25:10.245Z,1.48
2023-05-19T17:30:13.308Z,1.13
2023-05-19T17:35:14.880Z,1.58
2023-05-19T17:40:16.543Z,1.10
2023-05-19T17:45:18.251Z,1.20
2023-05-19T17:50:19.918Z,2.55
2023-05-19T17:55:21.967Z,1.45
2023-05-19T18:00:24.995Z,2.08
2023-05-19T18:05:27.288Z,1.50
2023-05-19T18:10:31.359Z,1.65
2023-05-19T18:15:33.509Z,2.08
2023-05-19T18:20:35.302Z,2.05
2023-05-19T18:25:37.349Z,1.65
2023-05-19T18:30:38.942Z,1.92
2023-05-19T18:35:40.775Z,1.70
2023-05-19T18:40:45.462Z,1.95
2023-05-19T18:45:47.197Z,2.17
2023-05-19T18:50:48.753Z,1.90
2023-05-19T18:55:50.339Z,1.83
2023-05-19T19:00:55.181Z,2.10
2023-05-19T19:05:57.884Z,2.47
2023-05-19T19:11:01.060Z,4.20
2023-05-19T19:16:02.888Z,3.25
2023-05-19T19:21:05.956Z,2.10
2023-05-19T19:26:09.218Z,2.10
2023-05-19T19:31:10.844Z,2.75
2023-05-19T19:36:12.745Z,1.90
2023-05-19T19:41:14.279Z,1.95
2023-05-19T19:46:15.885Z,2.42
2023-05-19T19:51:17.557Z,1.80
2023-05-19T19:56:19.253Z,2.30
2023-05-19T20:01:23.445Z,1.80
2023-05-19T20:06:25.185Z,2.10
2023-05-19T20:11:26.852Z,2.10
2023-05-19T20:16:28.742Z,1.75
2023-05-19T20:21:30.499Z,2.13
2023-05-19T20:26:32.083Z,2.00
2023-05-19T20:31:33.644Z,2.33
2023-05-19T20:36:35.536Z,2.42
2023-05-19T20:41:37.292Z,2.42
2023-05-19T20:46:38.881Z,1.92
2023-05-19T20:51:40.545Z,2.85
2023-05-19T20:56:42.227Z,2.30
2023-05-19T21:01:45.567Z,2.33
2023-05-19T21:06:47.275Z,2.42
2023-05-19T21:11:49.037Z,2.38
2023-05-19T21:16:53.812Z,2.30
2023-05-19T21:21:56.943Z,2.60
2023-05-19T21:26:58.522Z,2.20
2023-05-19T21:32:00.130Z,2.70
2023-05-19T21:37:01.766Z,2.60
2023-05-19T21:42:03.955Z,2.47
2023-05-19T21:47:05.533Z,2.45
2023-05-19T21:52:07.878Z,2.90
2023-05-19T21:57:11.110Z,3.05
2023-05-19T22:02:12.778Z,3.22
2023-05-19T22:07:14.350Z,2.92
2023-05-19T22:12:15.880Z,3.33
2023-05-19T22:17:17.499Z,2.83
2023-05-19T22:22:19.010Z,2.85
2023-05-19T22:27:20.646Z,4.50
2023-05-19T22:32:22.173Z,2.72
2023-05-19T22:37:24.471Z,2.72
2023-05-19T22:42:26.829Z,2.80
2023-05-19T22:47:29.622Z,2.78
2023-05-19T22:52:31.283Z,3.10
2023-05-19T22:57:32.851Z,3.17
2023-05-19T23:02:34.485Z,2.47
2023-05-19T23:07:36.285Z,2.78
2023-05-19T23:12:37.842Z,3.13
2023-05-19T23:17:39.364Z,2.75
2023-05-19T23:22:41.063Z,2.88
2023-05-19T23:27:42.725Z,2.95
2023-05-19T23:32:47.323Z,2.60
2023-05-19T23:37:48.856Z,2.80
2023-05-19T23:42:50.404Z,2.60
2023-05-19T23:47:52.133Z,3.10
2023-05-19T23:52:53.684Z,3.10
2023-05-19T23:57:55.257Z,2.90
